Time;durP1;ratioP1;P1;durP2;ratioP2;P2;SDS_P1;SDS_P2;PMS_P1;PMS_P2;Temp;Humidity;BMP_temperature;BMP_pressure;BME280_temperature;BME280_humidity;BME280_pressure;Samples;Min_cycle;Max_cycle;Signal;HPM_P1;HPM_P2
2024/02/28 00:07:14;;;;;;;;;;;7.50;99.90;;;;;;21205564;27;19938;-78
2024/02/28 00:17:15;;;;;;;;;;;7.60;99.90;;;;;;21203590;27;19916;-78
2024/02/28 00:27:16;;;;;;;;;;;7.50;99.90;;;;;;21239631;27;19946;-78
2024/02/28 00:37:16;;;;;;;;;;;7.50;99.90;;;;;;21238954;27;20537;-78
2024/02/28 00:47:17;;;;;;;;;;;7.40;99.90;;;;;;21214325;27;19915;-78
2024/02/28 00:57:18;;;;;;;;;;;7.40;99.90;;;;;;21217549;27;19920;-79
2024/02/28 01:07:19;;;;;;;;;;;7.40;99.90;;;;;;21221505;27;20469;-78
2024/02/28 01:17:19;;;;;;;;;;;7.30;99.90;;;;;;21208276;27;19916;-78
2024/02/28 01:27:20;;;;;;;;;;;7.30;99.90;;;;;;21206071;27;19912;-77
2024/02/28 01:37:21;;;;;;;;;;;7.40;99.90;;;;;;21179690;27;19916;-77
2024/02/28 01:47:22;;;;;;;;;;;7.20;99.90;;;;;;21206521;27;19977;-78
2024/02/28 01:57:22;;;;;;;;;;;7.30;99.90;;;;;;21190479;27;19915;-78
2024/02/28 02:07:23;;;;;;;;;;;7.30;99.90;;;;;;21181896;27;20340;-78
2024/02/28 02:17:24;;;;;;;;;;;7.20;99.90;;;;;;21214442;27;19916;-78
2024/02/28 02:27:25;;;;;;;;;;;7.00;99.90;;;;;;21193884;27;19979;-78
2024/02/28 02:37:26;;;;;;;;;;;6.80;99.90;;;;;;21197818;27;19916;-77
2024/02/28 02:47:27;;;;;;;;;;;6.90;99.90;;;;;;21195040;27;19980;-78
2024/02/28 02:57:27;;;;;;;;;;;7.10;99.90;;;;;;21211202;27;19922;-78
2024/02/28 03:07:28;;;;;;;;;;;7.00;99.90;;;;;;21225772;27;20002;-78
2024/02/28 03:17:29;;;;;;;;;;;6.90;99.90;;;;;;21290316;27;19919;-77
2024/02/28 03:27:30;;;;;;;;;;;6.70;99.90;;;;;;21260579;27;20044;-77
2024/02/28 03:37:31;;;;;;;;;;;6.80;99.90;;;;;;21270805;27;19960;-77
2024/02/28 03:47:31;;;;;;;;;;;6.80;99.90;;;;;;21274809;27;20519;-78
2024/02/28 03:57:32;;;;;;;;;;;6.80;99.90;;;;;;21297100;27;19915;-78
2024/02/28 04:07:33;;;;;;;;;;;6.80;99.90;;;;;;21262279;27;19922;-78
2024/02/28 04:17:34;;;;;;;;;;;6.80;99.90;;;;;;21202352;27;19915;-78
2024/02/28 04:27:37;;;;;;;;;;;6.60;99.90;;;;;;21198517;27;19957;-78
2024/02/28 04:37:38;;;;;;;;;;;6.50;99.90;;;;;;21204182;27;19915;-78
2024/02/28 04:47:39;;;;;;;;;;;6.40;99.90;;;;;;21220160;27;19922;-78
2024/02/28 04:57:39;;;;;;;;;;;6.30;99.90;;;;;;21215021;27;19912;-78
2024/02/28 05:07:40;;;;;;;;;;;6.20;99.90;;;;;;21200944;27;19916;-78
2024/02/28 05:17:41;;;;;;;;;;;6.20;99.90;;;;;;21207715;27;20408;-78
2024/02/28 05:27:41;;;;;;;;;;;6.10;99.90;;;;;;21210684;27;19934;-78
2024/02/28 05:37:44;;;;;;;;;;;6.20;99.90;;;;;;21212283;27;19917;-78
2024/02/28 05:47:44;;;;;;;;;;;5.90;99.90;;;;;;21206776;27;20374;-78
2024/02/28 05:57:45;;;;;;;;;;;5.90;99.90;;;;;;21212875;27;19919;-77
2024/02/28 06:07:46;;;;;;;;;;;6.00;99.90;;;;;;21222321;27;19915;-77
2024/02/28 06:17:46;;;;;;;;;;;6.00;99.90;;;;;;21309534;27;19998;-77
2024/02/28 06:27:47;;;;;;;;;;;6.10;99.90;;;;;;21328610;27;19910;-77
2024/02/28 06:37:49;;;;;;;;;;;6.10;99.90;;;;;;21304916;27;20299;-77
2024/02/28 06:47:50;;;;;;;;;;;6.10;99.90;;;;;;21306045;27;19911;-78
2024/02/28 06:57:51;;;;;;;;;;;5.90;99.90;;;;;;21323916;27;19929;-77
2024/02/28 07:07:52;;;;;;;;;;;5.80;99.90;;;;;;21339455;27;19919;-77
2024/02/28 07:17:53;;;;;;;;;;;5.90;99.90;;;;;;21343162;27;19935;-78
2024/02/28 07:27:54;;;;;;;;;;;6.10;99.90;;;;;;21366318;27;19926;-79
2024/02/28 07:37:54;;;;;;;;;;;6.30;99.90;;;;;;21372548;27;19911;-78
2024/02/28 07:47:55;;;;;;;;;;;6.30;99.90;;;;;;21371797;27;20305;-80
2024/02/28 07:57:56;;;;;;;;;;;6.40;99.90;;;;;;21363389;27;20549;-78
2024/02/28 08:07:56;;;;;;;;;;;6.10;99.90;;;;;;21365680;27;19915;-79
2024/02/28 08:17:58;;;;;;;;;;;6.00;99.90;;;;;;21352893;27;20293;-79
2024/02/28 08:27:58;;;;;;;;;;;5.80;99.90;;;;;;21364980;27;19917;-78
2024/02/28 08:37:59;;;;;;;;;;;6.00;99.90;;;;;;21361277;27;19911;-79
2024/02/28 08:48:01;;;;;;;;;;;6.20;99.90;;;;;;21364610;27;19922;-78
2024/02/28 08:58:02;;;;;;;;;;;6.20;99.90;;;;;;21365576;27;19919;-80
2024/02/28 09:08:02;;;;;;;;;;;6.30;99.90;;;;;;21357827;27;20377;-78
2024/02/28 09:18:03;;;;;;;;;;;6.40;99.90;;;;;;21361667;27;19918;-79
2024/02/28 09:28:04;;;;;;;;;;;6.40;99.90;;;;;;21358176;27;19954;-78
2024/02/28 09:38:04;;;;;;;;;;;6.70;99.90;;;;;;21351519;27;19918;-80
2024/02/28 09:48:06;;;;;;;;;;;7.90;99.90;;;;;;21354445;27;20281;-79
2024/02/28 09:58:07;;;;;;;;;;;7.90;99.90;;;;;;21355011;27;20009;-80
2024/02/28 10:08:09;;;;;;;;;;;7.50;99.90;;;;;;21350488;27;20002;-80
2024/02/28 10:18:17;;;;;;;;;;;7.70;99.90;;;;;;21166460;27;20379;-81
2024/02/28 10:28:17;;;;;;;;;;;8.90;99.90;;;;;;21152322;28;19934;-81
2024/02/28 10:38:18;;;;;;;;;;;8.50;99.90;;;;;;21155482;28;19916;-80
2024/02/28 10:48:19;;;;;;;;;;;8.40;99.90;;;;;;21154239;28;19912;-79
2024/02/28 10:58:22;;;;;;;;;;;8.90;99.90;;;;;;21123591;28;19912;-78
2024/02/28 11:08:23;;;;;;;;;;;9.10;99.90;;;;;;21109731;28;19912;-79
2024/02/28 11:18:24;;;;;;;;;;;9.30;99.90;;;;;;21098186;28;20447;-79
2024/02/28 11:28:25;;;;;;;;;;;9.70;99.90;;;;;;21032901;28;19944;-80
2024/02/28 11:38:26;;;;;;;;;;;10.30;99.90;;;;;;21050638;28;19916;-77
2024/02/28 11:48:29;;;;;;;;;;;10.20;99.90;;;;;;21055369;28;19913;-78
2024/02/28 11:58:30;;;;;;;;;;;10.20;99.90;;;;;;21042337;28;20019;-77
2024/02/28 12:08:30;;;;;;;;;;;11.00;99.90;;;;;;21030783;28;19959;-78
2024/02/28 12:18:31;;;;;;;;;;;11.30;99.90;;;;;;21018811;28;20294;-78
2024/02/28 12:28:32;;;;;;;;;;;11.20;99.90;;;;;;21008960;28;20007;-78
2024/02/28 12:38:32;;;;;;;;;;;11.20;99.90;;;;;;21042077;28;19981;-78
2024/02/28 12:48:37;;;;;;;;;;;12.10;99.90;;;;;;21009069;28;19923;-79
2024/02/28 12:58:37;;;;;;;;;;;12.10;99.90;;;;;;21025884;28;19957;-78
2024/02/28 13:08:38;;;;;;;;;;;11.00;99.90;;;;;;21033517;28;20402;-79
2024/02/28 13:18:39;;;;;;;;;;;12.10;99.90;;;;;;21061274;28;19912;-80
2024/02/28 13:28:40;;;;;;;;;;;11.60;99.90;;;;;;21054643;28;19923;-79
2024/02/28 13:38:41;;;;;;;;;;;11.80;99.90;;;;;;21053161;28;20007;-79
2024/02/28 13:48:41;;;;;;;;;;;11.80;99.90;;;;;;21040230;28;20299;-77
2024/02/28 13:58:42;;;;;;;;;;;11.70;99.90;;;;;;21043700;28;19919;-78
2024/02/28 14:08:43;;;;;;;;;;;11.60;99.90;;;;;;21017798;28;19963;-78
2024/02/28 14:18:45;;;;;;;;;;;11.20;99.90;;;;;;21034408;28;19912;-78
2024/02/28 14:28:45;;;;;;;;;;;11.10;99.90;;;;;;21050469;28;19916;-78
2024/02/28 14:38:47;;;;;;;;;;;11.20;99.90;;;;;;21026416;28;19919;-78
2024/02/28 14:48:51;;;;;;;;;;;10.60;99.90;;;;;;21005046;28;20397;-78
2024/02/28 14:58:52;;;;;;;;;;;11.10;99.90;;;;;;21012180;28;19912;-77
2024/02/28 15:08:52;;;;;;;;;;;10.80;99.90;;;;;;21022174;28;19917;-78
2024/02/28 15:18:55;;;;;;;;;;;11.20;99.90;;;;;;21064026;28;19940;-77
2024/02/28 15:28:56;;;;;;;;;;;10.60;99.90;;;;;;21077239;28;19935;-78
2024/02/28 15:38:56;;;;;;;;;;;10.50;99.90;;;;;;21094663;28;19959;-78
2024/02/28 15:48:57;;;;;;;;;;;10.30;99.90;;;;;;21088348;28;19916;-78
2024/02/28 15:58:57;;;;;;;;;;;9.90;99.90;;;;;;21085537;28;20366;-79
2024/02/28 16:08:58;;;;;;;;;;;9.70;99.90;;;;;;21080186;28;19971;-79
2024/02/28 16:18:59;;;;;;;;;;;9.70;99.90;;;;;;21095467;28;19912;-79
2024/02/28 16:28:59;;;;;;;;;;;9.50;99.90;;;;;;21090253;28;20329;-78
2024/02/28 16:39:00;;;;;;;;;;;9.30;99.90;;;;;;21057202;28;19916;-78
2024/02/28 16:49:03;;;;;;;;;;;9.20;99.90;;;;;;21044067;28;19919;-78
2024/02/28 16:59:03;;;;;;;;;;;9.10;99.90;;;;;;21035445;28;19921;-78
2024/02/28 17:09:04;;;;;;;;;;;9.10;99.90;;;;;;21055659;28;20020;-79
2024/02/28 17:19:05;;;;;;;;;;;9.00;99.90;;;;;;21054892;28;19947;-76
2024/02/28 17:29:06;;;;;;;;;;;8.90;99.90;;;;;;21057539;28;20365;-78
2024/02/28 17:39:07;;;;;;;;;;;8.90;99.90;;;;;;21061380;28;20379;-78
2024/02/28 17:49:08;;;;;;;;;;;8.90;99.90;;;;;;21071097;28;19974;-79
2024/02/28 17:59:08;;;;;;;;;;;8.90;99.90;;;;;;21063229;28;20371;-80
2024/02/28 18:09:10;;;;;;;;;;;8.90;99.90;;;;;;21023913;28;19917;-80
2024/02/28 18:19:11;;;;;;;;;;;8.80;99.90;;;;;;21050475;28;20294;-79
2024/02/28 18:29:11;;;;;;;;;;;8.90;99.90;;;;;;21033168;28;19924;-79
2024/02/28 18:39:12;;;;;;;;;;;8.90;99.90;;;;;;21063772;28;20302;-79
2024/02/28 18:49:12;;;;;;;;;;;8.90;99.90;;;;;;21042461;28;19970;-79
2024/02/28 18:59:13;;;;;;;;;;;8.80;99.90;;;;;;21038923;28;20284;-79
2024/02/28 19:09:14;;;;;;;;;;;8.80;99.90;;;;;;21047131;28;19920;-79
2024/02/28 19:19:14;;;;;;;;;;;8.60;99.90;;;;;;21052124;28;19917;-78
2024/02/28 19:29:15;;;;;;;;;;;8.50;99.90;;;;;;21025900;28;20015;-78
2024/02/28 19:39:16;;;;;;;;;;;8.40;99.90;;;;;;21050706;28;19919;-78
2024/02/28 19:49:16;;;;;;;;;;;8.30;99.90;;;;;;21030769;28;19916;-79
2024/02/28 19:59:17;;;;;;;;;;;8.20;99.90;;;;;;21053826;28;19920;-78
2024/02/28 20:09:18;;;;;;;;;;;8.10;99.90;;;;;;21012001;28;19922;-78
2024/02/28 20:19:18;;;;;;;;;;;8.20;99.90;;;;;;21058514;28;19935;-78
2024/02/28 20:29:19;;;;;;;;;;;8.10;99.90;;;;;;21023447;28;19952;-77
2024/02/28 20:39:20;;;;;;;;;;;8.10;99.90;;;;;;21035986;28;19923;-77
2024/02/28 20:49:21;;;;;;;;;;;8.00;99.90;;;;;;21047301;28;20307;-78
2024/02/28 20:59:21;;;;;;;;;;;8.10;99.90;;;;;;21017190;28;19947;-78
2024/02/28 21:09:22;;;;;;;;;;;8.20;99.90;;;;;;21037389;28;19916;-77
2024/02/28 21:19:23;;;;;;;;;;;8.00;99.90;;;;;;21046298;28;19947;-78
2024/02/28 21:29:23;;;;;;;;;;;7.90;99.90;;;;;;21036017;28;20017;-78
2024/02/28 21:39:24;;;;;;;;;;;7.90;99.90;;;;;;21036379;28;19922;-77
2024/02/28 21:49:25;;;;;;;;;;;7.90;99.90;;;;;;21028863;28;19970;-80
2024/02/28 21:59:25;;;;;;;;;;;7.90;99.90;;;;;;21057386;28;19912;-80
2024/02/28 22:09:26;;;;;;;;;;;8.00;99.90;;;;;;21027315;28;19916;-81
2024/02/28 22:19:27;;;;;;;;;;;7.80;99.90;;;;;;21026835;28;20398;-81
2024/02/28 22:29:27;;;;;;;;;;;7.70;99.90;;;;;;21074409;28;19969;-80
2024/02/28 22:39:28;;;;;;;;;;;7.70;99.90;;;;;;21098113;28;19912;-78
2024/02/28 22:49:29;;;;;;;;;;;7.70;99.90;;;;;;21099796;28;20383;-80
2024/02/28 22:59:29;;;;;;;;;;;7.50;99.90;;;;;;21101669;28;19912;-80
2024/02/28 23:09:30;;;;;;;;;;;7.70;99.90;;;;;;21087862;28;20201;-80
2024/02/28 23:19:34;;;;;;;;;;;7.60;99.90;;;;;;21099795;28;19923;-80
2024/02/28 23:29:35;;;;;;;;;;;7.40;99.90;;;;;;21107790;28;20007;-80
2024/02/28 23:39:36;;;;;;;;;;;7.40;99.90;;;;;;21108722;28;19912;-80
2024/02/28 23:49:37;;;;;;;;;;;7.50;99.90;;;;;;21107276;28;19922;-81
2024/02/28 23:59:40;;;;;;;;;;;7.60;99.90;;;;;;21098928;28;19912;-82
